Time;durP1;ratioP1;P1;durP2;ratioP2;P2;SDS_P1;SDS_P2;PMS_P1;PMS_P2;Temp;Humidity;BMP_temperature;BMP_pressure;BME280_temperature;BME280_humidity;BME280_pressure;Samples;Min_cycle;Max_cycle;Signal;HPM_P1;HPM_P2
2023/05/15 00:00:30;;;;;;;0.00;0.00;;;;;;;;;;1751466;28;20253;-68
2023/05/15 00:01:23;;;;;;;0.00;0.00;;;;;;;;;;1746174;28;20203;-68
2023/05/15 00:02:15;;;;;;;0.00;0.00;;;;;;;;;;1751074;28;20285;-69
2023/05/15 00:03:06;;;;;;;0.00;0.00;;;;;;;;;;1748517;28;20280;-68
2023/05/15 00:03:58;;;;;;;0.00;0.00;;;;;;;;;;1750726;28;20207;-68
2023/05/15 00:04:49;;;;;;;0.00;0.00;;;;;;;;;;1751349;28;20214;-68
2023/05/15 00:05:41;;;;;;;0.00;0.00;;;;;;;;;;1750254;28;20727;-68
2023/05/15 00:06:32;;;;;;;0.00;0.00;;;;;;;;;;1749067;28;20345;-69
2023/05/15 00:07:24;;;;;;;0.00;0.00;;;;;;;;;;1749866;28;20226;-68
2023/05/15 00:08:15;;;;;;;0.00;0.00;;;;;;;;;;1749119;28;20236;-68
2023/05/15 00:09:08;;;;;;;0.00;0.00;;;;;;;;;;1750335;28;20213;-68
2023/05/15 00:09:59;;;;;;;0.00;0.00;;;;;;;;;;1751811;28;20215;-68
2023/05/15 00:10:52;;;;;;;0.00;0.00;;;;;;;;;;1751765;28;20210;-69
2023/05/15 00:11:43;;;;;;;0.00;0.00;;;;;;;;;;1752007;28;20293;-69
2023/05/15 00:12:36;;;;;;;0.00;0.00;;;;;;;;;;1748804;28;20210;-69
2023/05/15 00:13:27;;;;;;;0.00;0.00;;;;;;;;;;1750849;28;20203;-68
2023/05/15 00:14:19;;;;;;;0.00;0.00;;;;;;;;;;1751206;28;20853;-68
2023/05/15 00:15:10;;;;;;;0.00;0.00;;;;;;;;;;1752318;28;20290;-68
2023/05/15 00:16:02;;;;;;;0.00;0.00;;;;;;;;;;1745930;28;20203;-68
2023/05/15 00:16:53;;;;;;;0.00;0.00;;;;;;;;;;1751197;28;20203;-68
2023/05/15 00:17:45;;;;;;;0.00;0.00;;;;;;;;;;1747782;28;20799;-68
2023/05/15 00:18:36;;;;;;;0.00;0.00;;;;;;;;;;1751905;28;20241;-68
2023/05/15 00:19:28;;;;;;;0.00;0.00;;;;;;;;;;1749472;28;20685;-68
2023/05/15 00:20:19;;;;;;;0.00;0.00;;;;;;;;;;1746517;28;20262;-68
2023/05/15 00:21:11;;;;;;;0.00;0.00;;;;;;;;;;1746985;28;20200;-68
2023/05/15 00:22:02;;;;;;;0.00;0.00;;;;;;;;;;1752754;28;20195;-68
2023/05/15 00:22:54;;;;;;;0.00;0.00;;;;;;;;;;1747174;28;20302;-68
2023/05/15 00:23:46;;;;;;;0.00;0.00;;;;;;;;;;1752052;28;20278;-68
2023/05/15 00:24:38;;;;;;;0.00;0.00;;;;;;;;;;1749295;28;20275;-68
2023/05/15 00:25:29;;;;;;;0.00;0.00;;;;;;;;;;1751798;28;20292;-68
2023/05/15 00:26:24;;;;;;;0.00;0.00;;;;;;;;;;1746669;28;20229;-68
2023/05/15 00:27:15;;;;;;;0.00;0.00;;;;;;;;;;1751205;28;20652;-68
2023/05/15 00:28:07;;;;;;;0.00;0.00;;;;;;;;;;1747486;28;20209;-68
2023/05/15 00:28:58;;;;;;;0.00;0.00;;;;;;;;;;1750627;28;20302;-69
2023/05/15 00:29:50;;;;;;;0.00;0.00;;;;;;;;;;1750360;28;20194;-69
2023/05/15 00:30:41;;;;;;;0.00;0.00;;;;;;;;;;1750030;28;20206;-68
2023/05/15 00:31:33;;;;;;;0.00;0.00;;;;;;;;;;1748601;28;20291;-68
2023/05/15 00:32:24;;;;;;;0.00;0.00;;;;;;;;;;1750116;28;20532;-69
2023/05/15 00:33:15;;;;;;;0.00;0.00;;;;;;;;;;1747967;28;20481;-68
2023/05/15 00:34:07;;;;;;;0.00;0.00;;;;;;;;;;1750134;28;20195;-68
2023/05/15 00:34:58;;;;;;;0.00;0.00;;;;;;;;;;1751413;28;20251;-68
2023/05/15 00:35:50;;;;;;;0.00;0.00;;;;;;;;;;1749339;28;20207;-69
2023/05/15 00:36:42;;;;;;;0.00;0.00;;;;;;;;;;1749616;28;20292;-68
2023/05/15 00:37:33;;;;;;;0.00;0.00;;;;;;;;;;1750950;28;20263;-69
2023/05/15 00:38:24;;;;;;;0.00;0.00;;;;;;;;;;1752092;28;20251;-68
2023/05/15 00:39:16;;;;;;;0.00;0.00;;;;;;;;;;1748930;28;20293;-69
2023/05/15 00:40:10;;;;;;;0.00;0.00;;;;;;;;;;1752159;28;20214;-68
2023/05/15 00:41:01;;;;;;;0.00;0.00;;;;;;;;;;1747915;28;20384;-68
2023/05/15 00:41:55;;;;;;;0.00;0.00;;;;;;;;;;1750753;28;20654;-68
2023/05/15 00:42:46;;;;;;;0.00;0.00;;;;;;;;;;1747390;28;20850;-69
2023/05/15 00:43:39;;;;;;;0.00;0.00;;;;;;;;;;1751807;28;20651;-69
2023/05/15 00:44:30;;;;;;;0.00;0.00;;;;;;;;;;1748959;28;20522;-68
2023/05/15 00:45:22;;;;;;;0.00;0.00;;;;;;;;;;1752069;28;20199;-68
2023/05/15 00:46:14;;;;;;;0.00;0.00;;;;;;;;;;1746451;28;20202;-67
2023/05/15 00:47:06;;;;;;;0.00;0.00;;;;;;;;;;1752390;28;20252;-68
2023/05/15 00:47:58;;;;;;;0.00;0.00;;;;;;;;;;1750603;28;20588;-68
2023/05/15 00:48:50;;;;;;;0.00;0.00;;;;;;;;;;1751924;28;20207;-68
2023/05/15 00:49:43;;;;;;;0.00;0.00;;;;;;;;;;1748937;28;20265;-68
2023/05/15 00:50:34;;;;;;;0.00;0.00;;;;;;;;;;1750864;28;20230;-69
2023/05/15 00:51:27;;;;;;;0.00;0.00;;;;;;;;;;1749668;28;20289;-68
2023/05/15 00:52:18;;;;;;;0.00;0.00;;;;;;;;;;1750489;28;20195;-68
2023/05/15 00:53:10;;;;;;;0.00;0.00;;;;;;;;;;1748804;28;20229;-68
2023/05/15 00:54:01;;;;;;;0.00;0.00;;;;;;;;;;1749639;28;20207;-68
2023/05/15 00:54:54;;;;;;;0.00;0.00;;;;;;;;;;1751029;28;20210;-68
2023/05/15 00:55:45;;;;;;;0.00;0.00;;;;;;;;;;1748942;28;20210;-69
2023/05/15 00:56:37;;;;;;;0.00;0.00;;;;;;;;;;1751723;28;20206;-68
2023/05/15 00:57:30;;;;;;;0.00;0.00;;;;;;;;;;1750172;28;20198;-68
2023/05/15 00:58:22;;;;;;;0.00;0.00;;;;;;;;;;1749288;28;20203;-68
2023/05/15 00:59:14;;;;;;;0.00;0.00;;;;;;;;;;1749000;28;20211;-67
2023/05/15 01:00:09;;;;;;;0.00;0.00;;;;;;;;;;1751494;28;20594;-67
2023/05/15 01:01:00;;;;;;;0.00;0.00;;;;;;;;;;1747617;28;20239;-68
2023/05/15 01:01:52;;;;;;;0.00;0.00;;;;;;;;;;1750726;28;20202;-68
2023/05/15 01:02:43;;;;;;;0.00;0.00;;;;;;;;;;1751188;28;20214;-69
2023/05/15 01:03:35;;;;;;;0.00;0.00;;;;;;;;;;1751699;28;20322;-68
2023/05/15 01:04:26;;;;;;;0.00;0.00;;;;;;;;;;1748923;28;20677;-68
2023/05/15 01:05:18;;;;;;;0.00;0.00;;;;;;;;;;1751619;28;20198;-69
2023/05/15 01:06:09;;;;;;;0.00;0.00;;;;;;;;;;1746702;28;20211;-69
2023/05/15 01:07:01;;;;;;;0.00;0.00;;;;;;;;;;1751742;28;20699;-67
2023/05/15 01:07:56;;;;;;;0.00;0.00;;;;;;;;;;1749134;28;20259;-67
2023/05/15 01:08:48;;;;;;;0.00;0.00;;;;;;;;;;1751601;28;20802;-69
2023/05/15 01:09:40;;;;;;;0.00;0.00;;;;;;;;;;1748854;28;20236;-69
2023/05/15 01:10:33;;;;;;;0.00;0.00;;;;;;;;;;1751858;28;20746;-68
2023/05/15 01:11:26;;;;;;;0.00;0.00;;;;;;;;;;1746038;28;20708;-68
2023/05/15 01:12:19;;;;;;;0.00;0.00;;;;;;;;;;1750644;28;20199;-69
2023/05/15 01:13:13;;;;;;;0.00;0.00;;;;;;;;;;1748556;28;20202;-68
2023/05/15 01:14:05;;;;;;;0.00;0.00;;;;;;;;;;1745660;28;20207;-69
2023/05/15 01:14:57;;;;;;;0.00;0.00;;;;;;;;;;1750689;28;20596;-68
2023/05/15 01:15:48;;;;;;;0.00;0.00;;;;;;;;;;1749575;28;20210;-68
2023/05/15 01:16:40;;;;;;;0.00;0.00;;;;;;;;;;1749091;28;20323;-68
2023/05/15 01:17:31;;;;;;;0.00;0.00;;;;;;;;;;1748800;28;20206;-69
2023/05/15 01:18:24;;;;;;;0.00;0.00;;;;;;;;;;1749549;28;20641;-68
2023/05/15 01:19:15;;;;;;;0.00;0.00;;;;;;;;;;1750747;28;20501;-68
2023/05/15 01:20:09;;;;;;;0.00;0.00;;;;;;;;;;1751935;28;20708;-69
2023/05/15 01:21:17;;;;;;;0.00;0.00;;;;;;;;;;1747682;28;20218;-69
2023/05/15 01:22:24;;;;;;;0.00;0.00;;;;;;;;;;1745459;28;20661;-69
2023/05/15 01:23:17;;;;;;;0.00;0.00;;;;;;;;;;1748142;28;20685;-68
2023/05/15 01:24:16;;;;;;;0.00;0.00;;;;;;;;;;1749472;28;20667;-70
2023/05/15 01:25:16;;;;;;;0.00;0.00;;;;;;;;;;1752129;28;20195;-69
2023/05/15 01:26:23;;;;;;;0.00;0.00;;;;;;;;;;1745375;28;20586;-68
2023/05/15 01:27:17;;;;;;;0.00;0.00;;;;;;;;;;1745247;28;20240;-69
2023/05/15 01:28:10;;;;;;;0.00;0.00;;;;;;;;;;1751565;28;20399;-69
2023/05/15 01:29:04;;;;;;;0.00;0.00;;;;;;;;;;1749858;28;20669;-68
2023/05/15 01:30:00;;;;;;;0.00;0.00;;;;;;;;;;1749675;28;20688;-67
2023/05/15 01:30:52;;;;;;;0.00;0.00;;;;;;;;;;1749116;28;20226;-68
2023/05/15 01:31:44;;;;;;;0.00;0.00;;;;;;;;;;1749355;28;20234;-68
2023/05/15 01:32:39;;;;;;;0.00;0.00;;;;;;;;;;1748826;28;20242;-68
2023/05/15 01:33:34;;;;;;;0.00;0.00;;;;;;;;;;1750417;28;20218;-68
2023/05/15 01:34:29;;;;;;;0.00;0.00;;;;;;;;;;1748566;28;20202;-69
2023/05/15 01:35:23;;;;;;;0.00;0.00;;;;;;;;;;1752027;28;20244;-68
2023/05/15 01:36:16;;;;;;;0.00;0.00;;;;;;;;;;1746417;28;20539;-70
2023/05/15 01:37:08;;;;;;;0.00;0.00;;;;;;;;;;1752342;28;20202;-68
2023/05/15 01:38:03;;;;;;;0.00;0.00;;;;;;;;;;1746342;28;20573;-68
2023/05/15 01:38:57;;;;;;;0.00;0.00;;;;;;;;;;1751413;28;20255;-69
2023/05/15 01:39:49;;;;;;;0.00;0.00;;;;;;;;;;1750327;28;20275;-68
2023/05/15 01:40:41;;;;;;;0.00;0.00;;;;;;;;;;1749845;28;20284;-67
2023/05/15 01:41:36;;;;;;;0.00;0.00;;;;;;;;;;1748714;28;20211;-68
2023/05/15 01:42:30;;;;;;;0.00;0.00;;;;;;;;;;1749892;28;20202;-68
2023/05/15 01:43:24;;;;;;;0.00;0.00;;;;;;;;;;1749576;28;20205;-67
2023/05/15 01:44:18;;;;;;;0.00;0.00;;;;;;;;;;1748781;28;20547;-64
2023/05/15 01:45:12;;;;;;;0.00;0.00;;;;;;;;;;1752628;28;20250;-67
2023/05/15 01:46:04;;;;;;;0.00;0.00;;;;;;;;;;1747739;28;20267;-67
2023/05/15 01:46:59;;;;;;;0.00;0.00;;;;;;;;;;1751598;28;20199;-67
2023/05/15 01:47:53;;;;;;;0.00;0.00;;;;;;;;;;1746760;28;20231;-68
2023/05/15 01:48:46;;;;;;;0.00;0.00;;;;;;;;;;1751997;28;20320;-68
2023/05/15 01:49:38;;;;;;;0.00;0.00;;;;;;;;;;1748685;28;20259;-67
2023/05/15 01:50:31;;;;;;;0.00;0.00;;;;;;;;;;1751895;28;20214;-69
2023/05/15 01:51:22;;;;;;;0.00;0.00;;;;;;;;;;1751400;28;20206;-68
2023/05/15 01:52:16;;;;;;;0.00;0.00;;;;;;;;;;1751565;28;20202;-68
2023/05/15 01:53:08;;;;;;;0.00;0.00;;;;;;;;;;1747359;28;20785;-69
2023/05/15 01:54:00;;;;;;;0.00;0.00;;;;;;;;;;1749977;28;20577;-69
2023/05/15 01:54:51;;;;;;;0.00;0.00;;;;;;;;;;1750055;28;20263;-68
2023/05/15 01:55:44;;;;;;;0.00;0.00;;;;;;;;;;1746592;28;20288;-69
2023/05/15 01:56:35;;;;;;;0.00;0.00;;;;;;;;;;1748419;28;20206;-69
2023/05/15 01:57:28;;;;;;;0.00;0.00;;;;;;;;;;1749383;28;20209;-68
2023/05/15 01:58:21;;;;;;;0.00;0.00;;;;;;;;;;1751884;28;20729;-67
2023/05/15 01:59:14;;;;;;;0.00;0.00;;;;;;;;;;1748966;28;20202;-68
2023/05/15 02:00:06;;;;;;;0.00;0.00;;;;;;;;;;1750982;28;20679;-67
2023/05/15 02:00:58;;;;;;;0.00;0.00;;;;;;;;;;1747567;28;20244;-68
2023/05/15 02:01:50;;;;;;;0.00;0.00;;;;;;;;;;1750165;28;20209;-67
2023/05/15 02:02:42;;;;;;;0.00;0.00;;;;;;;;;;1746986;28;20205;-68
2023/05/15 02:03:33;;;;;;;0.00;0.00;;;;;;;;;;1750288;28;20266;-67
2023/05/15 02:04:25;;;;;;;0.00;0.00;;;;;;;;;;1751112;28;20630;-68
2023/05/15 02:05:17;;;;;;;0.00;0.00;;;;;;;;;;1751379;28;20198;-66
2023/05/15 02:06:10;;;;;;;0.00;0.00;;;;;;;;;;1751427;28;20252;-69
2023/05/15 02:07:01;;;;;;;0.00;0.00;;;;;;;;;;1751764;28;20212;-68
2023/05/15 02:07:53;;;;;;;0.00;0.00;;;;;;;;;;1747173;28;20709;-69
2023/05/15 02:08:46;;;;;;;0.00;0.00;;;;;;;;;;1751080;28;20210;-69
2023/05/15 02:09:39;;;;;;;0.00;0.00;;;;;;;;;;1750660;28;20732;-68
2023/05/15 02:10:31;;;;;;;0.00;0.00;;;;;;;;;;1751574;28;20636;-68
2023/05/15 02:11:23;;;;;;;0.00;0.00;;;;;;;;;;1746031;28;20268;-69
2023/05/15 02:12:14;;;;;;;0.03;0.03;;;;;;;;;;1751203;28;20259;-68
2023/05/15 02:13:07;;;;;;;0.00;0.00;;;;;;;;;;1746867;28;20216;-68
2023/05/15 02:14:00;;;;;;;0.00;0.00;;;;;;;;;;1749849;28;20273;-68
2023/05/15 02:14:52;;;;;;;0.00;0.00;;;;;;;;;;1750185;28;20213;-69
2023/05/15 02:15:43;;;;;;;0.00;0.00;;;;;;;;;;1749073;28;20703;-69
2023/05/15 02:16:36;;;;;;;0.00;0.00;;;;;;;;;;1748509;28;20337;-69
2023/05/15 02:17:28;;;;;;;0.00;0.00;;;;;;;;;;1748988;28;20801;-69
2023/05/15 02:18:20;;;;;;;0.00;0.00;;;;;;;;;;1748793;28;20211;-69
2023/05/15 02:19:11;;;;;;;0.00;0.00;;;;;;;;;;1749076;28;20210;-69
2023/05/15 02:20:05;;;;;;;0.00;0.00;;;;;;;;;;1750864;28;20203;-69
2023/05/15 02:20:57;;;;;;;0.00;0.00;;;;;;;;;;1748789;28;20654;-69
2023/05/15 02:21:48;;;;;;;0.00;0.00;;;;;;;;;;1751501;28;20257;-69
2023/05/15 02:22:40;;;;;;;0.10;0.10;;;;;;;;;;1747838;28;20197;-70
2023/05/15 02:23:31;;;;;;;0.00;0.00;;;;;;;;;;1750823;28;20675;-70
2023/05/15 02:24:22;;;;;;;0.00;0.00;;;;;;;;;;1749218;28;20616;-69
2023/05/15 02:25:14;;;;;;;0.00;0.00;;;;;;;;;;1753141;28;20201;-69
2023/05/15 02:26:10;;;;;;;0.00;0.00;;;;;;;;;;1747876;28;20208;-69
2023/05/15 02:27:05;;;;;;;0.00;0.00;;;;;;;;;;1752279;28;20227;-69
2023/05/15 02:27:59;;;;;;;0.00;0.00;;;;;;;;;;1747327;28;20286;-69
2023/05/15 02:28:55;;;;;;;0.00;0.00;;;;;;;;;;1753017;28;20661;-69
2023/05/15 02:29:54;;;;;;;0.00;0.00;;;;;;;;;;1749289;28;20647;-67
2023/05/15 02:30:53;;;;;;;0.00;0.00;;;;;;;;;;1750632;28;20206;-69
2023/05/15 02:31:47;;;;;;;0.00;0.00;;;;;;;;;;1750853;28;20210;-69
2023/05/15 02:32:47;;;;;;;0.00;0.00;;;;;;;;;;1749670;28;20204;-69
2023/05/15 02:33:41;;;;;;;0.00;0.00;;;;;;;;;;1752605;28;20209;-69
2023/05/15 02:34:38;;;;;;;0.00;0.00;;;;;;;;;;1748983;28;20229;-69
2023/05/15 02:35:32;;;;;;;0.00;0.00;;;;;;;;;;1753037;28;20598;-69
2023/05/15 02:36:28;;;;;;;0.00;0.00;;;;;;;;;;1752169;28;20261;-69
2023/05/15 02:37:24;;;;;;;0.00;0.00;;;;;;;;;;1751304;28;20193;-68
2023/05/15 02:38:17;;;;;;;0.00;0.00;;;;;;;;;;1752942;28;20669;-69
2023/05/15 02:39:08;;;;;;;0.00;0.00;;;;;;;;;;1746506;28;20739;-70
2023/05/15 02:40:01;;;;;;;0.05;0.05;;;;;;;;;;1751780;28;20315;-69
2023/05/15 02:40:55;;;;;;;0.00;0.00;;;;;;;;;;1749753;28;20213;-69
2023/05/15 02:41:47;;;;;;;0.00;0.00;;;;;;;;;;1750911;28;20591;-69
2023/05/15 02:42:38;;;;;;;0.03;0.03;;;;;;;;;;1749207;28;20213;-69
2023/05/15 02:43:30;;;;;;;0.00;0.00;;;;;;;;;;1751574;28;20643;-69
2023/05/15 02:44:22;;;;;;;0.00;0.00;;;;;;;;;;1749256;28;20210;-69
2023/05/15 02:45:15;;;;;;;0.00;0.00;;;;;;;;;;1753021;28;20200;-69
2023/05/15 02:46:07;;;;;;;0.00;0.00;;;;;;;;;;1747853;28;20249;-68
2023/05/15 02:47:00;;;;;;;0.00;0.00;;;;;;;;;;1752254;28;20542;-69
2023/05/15 02:47:51;;;;;;;0.00;0.00;;;;;;;;;;1747393;28;20285;-68
2023/05/15 02:48:44;;;;;;;0.00;0.00;;;;;;;;;;1752724;28;20288;-70
2023/05/15 02:49:35;;;;;;;0.00;0.00;;;;;;;;;;1748916;28;20203;-69
2023/05/15 02:50:27;;;;;;;0.00;0.00;;;;;;;;;;1749363;28;20693;-69
2023/05/15 02:51:18;;;;;;;0.00;0.00;;;;;;;;;;1747073;28;20205;-68
2023/05/15 02:52:10;;;;;;;0.00;0.00;;;;;;;;;;1753040;28;20201;-70
2023/05/15 02:53:02;;;;;;;0.00;0.00;;;;;;;;;;1748206;28;20495;-68
2023/05/15 02:53:55;;;;;;;0.00;0.00;;;;;;;;;;1751959;28;20644;-69
2023/05/15 02:54:46;;;;;;;0.00;0.00;;;;;;;;;;1749389;28;20207;-68
2023/05/15 02:55:39;;;;;;;0.00;0.00;;;;;;;;;;1746967;28;20634;-69
2023/05/15 02:56:30;;;;;;;0.00;0.00;;;;;;;;;;1749350;28;20679;-69
2023/05/15 02:57:22;;;;;;;0.00;0.00;;;;;;;;;;1750775;28;20603;-69
2023/05/15 02:58:13;;;;;;;0.00;0.00;;;;;;;;;;1752914;28;20196;-70
2023/05/15 02:59:05;;;;;;;0.00;0.00;;;;;;;;;;1750355;28;20202;-69
2023/05/15 02:59:56;;;;;;;0.00;0.00;;;;;;;;;;1775485;22;20209;-57
2023/05/15 03:00:49;;;;;;;0.00;0.00;;;;;;;;;;1746989;28;20302;-63
2023/05/15 03:01:41;;;;;;;0.00;0.00;;;;;;;;;;1749737;28;20781;-63
2023/05/15 03:02:33;;;;;;;0.00;0.00;;;;;;;;;;1751540;28;20215;-63
2023/05/15 03:03:24;;;;;;;0.00;0.00;;;;;;;;;;1752615;28;20204;-63
2023/05/15 03:04:16;;;;;;;0.00;0.00;;;;;;;;;;1751627;28;20553;-63
2023/05/15 03:05:07;;;;;;;0.00;0.00;;;;;;;;;;1747248;28;20212;-62
2023/05/15 03:05:59;;;;;;;0.00;0.00;;;;;;;;;;1749527;28;20212;-62
2023/05/15 03:06:50;;;;;;;0.00;0.00;;;;;;;;;;1751277;28;20265;-63
2023/05/15 03:07:42;;;;;;;0.00;0.00;;;;;;;;;;1749810;28;20683;-63
2023/05/15 03:08:33;;;;;;;0.00;0.00;;;;;;;;;;1748787;28;20209;-63
2023/05/15 03:09:24;;;;;;;0.00;0.00;;;;;;;;;;1750559;28;20204;-62
2023/05/15 03:10:16;;;;;;;0.00;0.00;;;;;;;;;;1756499;28;20223;-63
2023/05/15 03:11:07;;;;;;;0.00;0.00;;;;;;;;;;1753262;28;20363;-62
2023/05/15 03:11:59;;;;;;;0.00;0.00;;;;;;;;;;1758229;28;20300;-63
2023/05/15 03:12:51;;;;;;;0.00;0.00;;;;;;;;;;1757304;28;20214;-62
2023/05/15 03:13:42;;;;;;;0.00;0.00;;;;;;;;;;1756001;28;20757;-63
2023/05/15 03:14:34;;;;;;;0.00;0.00;;;;;;;;;;1755503;28;20216;-63
2023/05/15 03:15:25;;;;;;;0.00;0.00;;;;;;;;;;1759587;28;20253;-63
2023/05/15 03:16:18;;;;;;;0.00;0.00;;;;;;;;;;1758452;28;20196;-63
2023/05/15 03:17:09;;;;;;;0.00;0.00;;;;;;;;;;1759569;28;20294;-63
2023/05/15 03:18:01;;;;;;;0.00;0.00;;;;;;;;;;1757452;28;20200;-63
2023/05/15 03:18:52;;;;;;;0.00;0.00;;;;;;;;;;1756944;28;20680;-62
2023/05/15 03:19:44;;;;;;;0.00;0.00;;;;;;;;;;1757640;28;20200;-63
2023/05/15 03:20:35;;;;;;;0.00;0.00;;;;;;;;;;1758498;28;20724;-63
2023/05/15 03:21:27;;;;;;;0.00;0.00;;;;;;;;;;1753962;28;20298;-63
2023/05/15 03:22:18;;;;;;;0.00;0.00;;;;;;;;;;1758291;28;20204;-63
2023/05/15 03:23:10;;;;;;;0.00;0.00;;;;;;;;;;1753770;28;20566;-62
2023/05/15 03:24:01;;;;;;;0.00;0.00;;;;;;;;;;1756922;28;20205;-62
2023/05/15 03:24:53;;;;;;;0.00;0.00;;;;;;;;;;1757977;28;20200;-63
2023/05/15 03:25:44;;;;;;;0.00;0.00;;;;;;;;;;1757962;28;20208;-63
2023/05/15 03:26:36;;;;;;;0.00;0.00;;;;;;;;;;1754038;28;20295;-63
2023/05/15 03:27:27;;;;;;;0.00;0.00;;;;;;;;;;1753821;28;20262;-63
2023/05/15 03:28:19;;;;;;;0.00;0.00;;;;;;;;;;1756676;28;20225;-63
2023/05/15 03:29:10;;;;;;;0.00;0.00;;;;;;;;;;1754318;28;20336;-63
2023/05/15 03:30:02;;;;;;;0.00;0.00;;;;;;;;;;1758782;28;20304;-63
2023/05/15 03:30:53;;;;;;;0.00;0.00;;;;;;;;;;1755977;28;20212;-62
2023/05/15 03:31:46;;;;;;;0.00;0.00;;;;;;;;;;1755667;28;20618;-63
2023/05/15 03:32:37;;;;;;;0.00;0.00;;;;;;;;;;1757494;28;20213;-63
2023/05/15 03:33:29;;;;;;;0.00;0.00;;;;;;;;;;1755142;28;20217;-63
2023/05/15 03:34:20;;;;;;;0.00;0.00;;;;;;;;;;1755317;28;20203;-62
2023/05/15 03:35:12;;;;;;;0.00;0.00;;;;;;;;;;1759794;28;20201;-62
2023/05/15 03:36:05;;;;;;;0.00;0.00;;;;;;;;;;1756520;28;20260;-62
2023/05/15 03:36:56;;;;;;;0.00;0.00;;;;;;;;;;1758042;28;20250;-62
2023/05/15 03:37:48;;;;;;;0.00;0.00;;;;;;;;;;1758498;28;20295;-63
2023/05/15 03:38:39;;;;;;;0.00;0.00;;;;;;;;;;1752349;28;20265;-62
2023/05/15 03:39:31;;;;;;;0.00;0.00;;;;;;;;;;1754186;28;20264;-61
2023/05/15 03:40:22;;;;;;;0.00;0.00;;;;;;;;;;1752419;28;20639;-61
2023/05/15 03:41:14;;;;;;;0.00;0.00;;;;;;;;;;1753277;28;20525;-63
2023/05/15 03:42:05;;;;;;;0.00;0.00;;;;;;;;;;1758817;28;20252;-63
2023/05/15 03:42:57;;;;;;;0.00;0.00;;;;;;;;;;1755117;28;20292;-63
2023/05/15 03:43:48;;;;;;;0.00;0.00;;;;;;;;;;1752685;28;20731;-63
2023/05/15 03:44:40;;;;;;;0.00;0.00;;;;;;;;;;1755475;28;20559;-63
2023/05/15 03:45:32;;;;;;;0.00;0.00;;;;;;;;;;1757918;28;20203;-62
2023/05/15 03:46:24;;;;;;;0.00;0.00;;;;;;;;;;1753512;28;20202;-62
2023/05/15 03:47:17;;;;;;;0.00;0.00;;;;;;;;;;1758876;28;20209;-63
2023/05/15 03:48:09;;;;;;;0.00;0.00;;;;;;;;;;1755930;28;20235;-63
2023/05/15 03:49:00;;;;;;;0.00;0.00;;;;;;;;;;1756160;28;20208;-63
2023/05/15 03:49:52;;;;;;;0.00;0.00;;;;;;;;;;1757880;28;20252;-61
2023/05/15 03:50:43;;;;;;;0.00;0.00;;;;;;;;;;1757329;28;20307;-63
2023/05/15 03:51:35;;;;;;;0.00;0.00;;;;;;;;;;1753474;28;20291;-62
2023/05/15 03:52:27;;;;;;;0.00;0.00;;;;;;;;;;1752885;28;20256;-63
2023/05/15 03:53:19;;;;;;;0.00;0.00;;;;;;;;;;1756095;28;20199;-62
2023/05/15 03:54:10;;;;;;;0.00;0.00;;;;;;;;;;1757117;28;20216;-62
2023/05/15 03:55:02;;;;;;;0.00;0.00;;;;;;;;;;1753937;28;20569;-63
2023/05/15 03:55:53;;;;;;;0.00;0.00;;;;;;;;;;1756816;28;20742;-63
2023/05/15 03:56:45;;;;;;;0.00;0.00;;;;;;;;;;1757935;28;20233;-63
2023/05/15 03:57:36;;;;;;;0.00;0.00;;;;;;;;;;1755507;27;20534;-63
2023/05/15 03:58:30;;;;;;;0.00;0.00;;;;;;;;;;1757973;28;20614;-62
2023/05/15 03:59:21;;;;;;;0.00;0.00;;;;;;;;;;1755818;28;20270;-60
2023/05/15 04:00:14;;;;;;;0.00;0.00;;;;;;;;;;1759327;28;20284;-63
2023/05/15 04:01:06;;;;;;;0.00;0.00;;;;;;;;;;1753954;28;20223;-63
2023/05/15 04:01:58;;;;;;;0.00;0.00;;;;;;;;;;1758955;28;20211;-62
2023/05/15 04:02:51;;;;;;;0.00;0.00;;;;;;;;;;1758831;28;20208;-62
2023/05/15 04:03:43;;;;;;;0.00;0.00;;;;;;;;;;1755150;28;20661;-62
2023/05/15 04:04:34;;;;;;;0.00;0.00;;;;;;;;;;1757474;28;20210;-62
2023/05/15 04:05:26;;;;;;;0.00;0.00;;;;;;;;;;1759210;28;20210;-63
2023/05/15 04:06:17;;;;;;;0.00;0.00;;;;;;;;;;1753296;28;20550;-62
2023/05/15 04:07:09;;;;;;;0.00;0.00;;;;;;;;;;1758772;28;20621;-61
2023/05/15 04:08:00;;;;;;;0.00;0.00;;;;;;;;;;1754099;28;20256;-62
2023/05/15 04:08:52;;;;;;;0.00;0.00;;;;;;;;;;1755945;28;20234;-61
2023/05/15 04:09:43;;;;;;;0.00;0.00;;;;;;;;;;1758240;28;20242;-62
2023/05/15 04:10:35;;;;;;;0.00;0.00;;;;;;;;;;1758495;28;20228;-62
2023/05/15 04:11:27;;;;;;;0.00;0.00;;;;;;;;;;1752846;28;20882;-62
2023/05/15 04:12:19;;;;;;;0.00;0.00;;;;;;;;;;1752622;28;20201;-61
2023/05/15 04:13:10;;;;;;;0.00;0.00;;;;;;;;;;1754761;28;20271;-62
2023/05/15 04:14:02;;;;;;;0.00;0.00;;;;;;;;;;1757252;28;20260;-63
2023/05/15 04:14:53;;;;;;;0.00;0.00;;;;;;;;;;1756501;28;20253;-62
2023/05/15 04:15:45;;;;;;;0.00;0.00;;;;;;;;;;1756800;28;20234;-61
2023/05/15 04:16:36;;;;;;;0.00;0.00;;;;;;;;;;1753019;28;20253;-62
2023/05/15 04:17:27;;;;;;;0.00;0.00;;;;;;;;;;1753526;28;20193;-62
2023/05/15 04:18:20;;;;;;;0.00;0.00;;;;;;;;;;1756485;28;20569;-62
2023/05/15 04:19:11;;;;;;;0.00;0.00;;;;;;;;;;1752631;28;20224;-62
2023/05/15 04:20:03;;;;;;;0.00;0.00;;;;;;;;;;1756837;28;20217;-63
2023/05/15 04:20:55;;;;;;;0.00;0.00;;;;;;;;;;1756626;28;20216;-63
2023/05/15 04:21:46;;;;;;;0.00;0.00;;;;;;;;;;1755361;28;20202;-62
2023/05/15 04:22:38;;;;;;;0.00;0.00;;;;;;;;;;1757593;28;20303;-63
2023/05/15 04:23:29;;;;;;;0.00;0.00;;;;;;;;;;1753045;28;20579;-62
2023/05/15 04:24:21;;;;;;;0.00;0.00;;;;;;;;;;1757340;28;20197;-62
2023/05/15 04:25:13;;;;;;;0.00;0.00;;;;;;;;;;1759635;28;20779;-62
2023/05/15 04:26:05;;;;;;;0.00;0.00;;;;;;;;;;1756655;28;20357;-63
2023/05/15 04:26:56;;;;;;;0.00;0.00;;;;;;;;;;1759261;28;20975;-63
2023/05/15 04:27:48;;;;;;;0.00;0.00;;;;;;;;;;1755087;28;20965;-63
2023/05/15 04:28:40;;;;;;;0.00;0.00;;;;;;;;;;1752112;28;20227;-62
2023/05/15 04:29:32;;;;;;;0.00;0.00;;;;;;;;;;1755316;28;20285;-61
2023/05/15 04:30:23;;;;;;;0.00;0.00;;;;;;;;;;1755961;28;20278;-61
2023/05/15 04:31:15;;;;;;;0.00;0.00;;;;;;;;;;1756263;27;20470;-62
2023/05/15 04:32:06;;;;;;;0.00;0.00;;;;;;;;;;1759103;28;20631;-62
2023/05/15 04:32:58;;;;;;;0.00;0.00;;;;;;;;;;1754403;28;20207;-63
2023/05/15 04:33:50;;;;;;;0.00;0.00;;;;;;;;;;1758903;28;20326;-63
2023/05/15 04:34:42;;;;;;;0.00;0.00;;;;;;;;;;1753893;28;20263;-63
2023/05/15 04:35:34;;;;;;;0.08;0.08;;;;;;;;;;1757706;28;20715;-63
2023/05/15 04:36:26;;;;;;;0.00;0.00;;;;;;;;;;1753068;28;20202;-61
2023/05/15 04:37:17;;;;;;;0.00;0.00;;;;;;;;;;1758205;28;20627;-62
2023/05/15 04:38:09;;;;;;;0.00;0.00;;;;;;;;;;1757723;28;20209;-63
2023/05/15 04:39:00;;;;;;;0.00;0.00;;;;;;;;;;1757313;28;20257;-63
2023/05/15 04:39:52;;;;;;;0.00;0.00;;;;;;;;;;1756984;28;20316;-63
2023/05/15 04:40:43;;;;;;;0.00;0.00;;;;;;;;;;1755907;28;20208;-62
2023/05/15 04:41:35;;;;;;;0.00;0.00;;;;;;;;;;1757530;28;20234;-62
2023/05/15 04:42:26;;;;;;;0.00;0.00;;;;;;;;;;1752174;28;20228;-62
2023/05/15 04:43:18;;;;;;;0.00;0.00;;;;;;;;;;1756924;28;20200;-63
2023/05/15 04:44:09;;;;;;;0.00;0.00;;;;;;;;;;1758440;28;20213;-63
2023/05/15 04:45:01;;;;;;;0.00;0.00;;;;;;;;;;1757348;28;20204;-62
2023/05/15 04:45:52;;;;;;;0.00;0.00;;;;;;;;;;1756520;28;20207;-62
2023/05/15 04:46:44;;;;;;;0.00;0.00;;;;;;;;;;1758714;28;20609;-62
2023/05/15 04:47:35;;;;;;;0.00;0.00;;;;;;;;;;1756780;28;20531;-63
2023/05/15 04:48:27;;;;;;;0.00;0.00;;;;;;;;;;1756777;28;20224;-62
2023/05/15 04:49:19;;;;;;;0.00;0.00;;;;;;;;;;1754245;28;20284;-63
2023/05/15 04:50:11;;;;;;;0.00;0.00;;;;;;;;;;1758269;28;20204;-63
2023/05/15 04:51:02;;;;;;;0.00;0.00;;;;;;;;;;1754084;28;20266;-63
2023/05/15 04:51:54;;;;;;;0.00;0.00;;;;;;;;;;1752055;28;20706;-62
2023/05/15 04:52:45;;;;;;;0.00;0.00;;;;;;;;;;1754476;28;20266;-63
2023/05/15 04:53:37;;;;;;;0.00;0.00;;;;;;;;;;1758963;28;20622;-63
2023/05/15 04:54:28;;;;;;;0.00;0.00;;;;;;;;;;1754880;28;20205;-62
2023/05/15 04:55:20;;;;;;;0.00;0.00;;;;;;;;;;1752429;28;20195;-62
2023/05/15 04:56:11;;;;;;;0.00;0.00;;;;;;;;;;1753633;28;20214;-63
2023/05/15 04:57:03;;;;;;;0.00;0.00;;;;;;;;;;1757510;28;20201;-63
2023/05/15 04:57:54;;;;;;;0.00;0.00;;;;;;;;;;1758148;28;20266;-63
2023/05/15 04:58:46;;;;;;;0.00;0.00;;;;;;;;;;1759098;28;20265;-63
2023/05/15 04:59:37;;;;;;;0.00;0.00;;;;;;;;;;1754656;28;20618;-63
2023/05/15 05:00:30;;;;;;;0.00;0.00;;;;;;;;;;1755664;28;20531;-63
2023/05/15 05:01:21;;;;;;;0.00;0.00;;;;;;;;;;1752819;28;20280;-62
2023/05/15 05:02:13;;;;;;;0.00;0.00;;;;;;;;;;1758533;28;20201;-63
2023/05/15 05:03:04;;;;;;;0.00;0.00;;;;;;;;;;1754848;28;20761;-63
2023/05/15 05:03:56;;;;;;;0.00;0.00;;;;;;;;;;1757912;28;20209;-62
2023/05/15 05:04:49;;;;;;;0.00;0.00;;;;;;;;;;1758068;28;20529;-63
2023/05/15 05:05:41;;;;;;;0.00;0.00;;;;;;;;;;1758892;28;20671;-63
2023/05/15 05:06:32;;;;;;;0.00;0.00;;;;;;;;;;1756623;28;20634;-62
2023/05/15 05:07:24;;;;;;;0.00;0.00;;;;;;;;;;1760913;28;20201;-62
2023/05/15 05:08:15;;;;;;;0.00;0.00;;;;;;;;;;1758821;28;20256;-64
2023/05/15 05:09:07;;;;;;;0.00;0.00;;;;;;;;;;1761841;28;20263;-63
2023/05/15 05:09:58;;;;;;;0.00;0.00;;;;;;;;;;1758107;28;20239;-63
2023/05/15 05:10:50;;;;;;;0.00;0.00;;;;;;;;;;1753992;28;20259;-63
2023/05/15 05:11:42;;;;;;;0.00;0.00;;;;;;;;;;1756529;28;20202;-62
2023/05/15 05:12:34;;;;;;;0.10;0.10;;;;;;;;;;1753522;28;20584;-62
2023/05/15 05:13:25;;;;;;;0.00;0.00;;;;;;;;;;1758691;28;20292;-60